Time;durP1;ratioP1;P1;durP2;ratioP2;P2;SDS_P1;SDS_P2;PMS_P1;PMS_P2;Temp;Humidity;BMP_temperature;BMP_pressure;BME280_temperature;BME280_humidity;BME280_pressure;Samples;Min_cycle;Max_cycle;Signal;HPM_P1;HPM_P2
2023/05/01 00:00:49;;;;;;;11.32;5.35;;;9.80;99.90;;;;;;5091622;28;20562;-79
2023/05/01 00:03:16;;;;;;;8.55;4.75;;;9.80;99.90;;;;;;5090155;28;20178;-80
2023/05/01 00:05:43;;;;;;;9.30;5.68;;;9.80;99.90;;;;;;5087367;28;20187;-79
2023/05/01 00:08:10;;;;;;;12.48;5.80;;;9.80;99.90;;;;;;5089557;28;20185;-79
2023/05/01 00:10:36;;;;;;;10.70;6.03;;;9.80;99.90;;;;;;5090020;28;20285;-79
2023/05/01 00:13:02;;;;;;;8.93;5.60;;;9.80;99.90;;;;;;5074807;28;20174;-79
2023/05/01 00:15:28;;;;;;;9.93;5.95;;;9.80;99.90;;;;;;5072667;28;20202;-78
2023/05/01 00:17:54;;;;;;;12.85;6.30;;;9.80;99.90;;;;;;5088846;28;20669;-80
2023/05/01 00:20:22;;;;;;;11.68;6.18;;;9.80;99.90;;;;;;5089609;28;20185;-82
2023/05/01 00:22:48;;;;;;;11.07;5.47;;;9.70;99.90;;;;;;5072752;28;20178;-80
2023/05/01 00:25:14;;;;;;;13.32;6.10;;;9.60;99.90;;;;;;5072453;28;20213;-80
2023/05/01 00:27:39;;;;;;;8.90;5.57;;;9.70;99.90;;;;;;5089102;28;20217;-80
2023/05/01 00:30:06;;;;;;;11.85;5.88;;;9.70;99.90;;;;;;5093747;28;20177;-80
2023/05/01 00:32:33;;;;;;;9.77;6.15;;;9.70;99.90;;;;;;5059154;28;20192;-80
2023/05/01 00:34:59;;;;;;;9.80;5.38;;;9.70;99.90;;;;;;5092975;28;20189;-79
2023/05/01 00:37:25;;;;;;;8.52;5.63;;;9.70;99.90;;;;;;5090165;28;20643;-81
2023/05/01 00:39:51;;;;;;;12.70;6.15;;;9.70;99.90;;;;;;5077076;28;20194;-81
2023/05/01 00:42:16;;;;;;;12.02;5.93;;;9.70;99.90;;;;;;5077136;28;20181;-80
2023/05/01 00:44:42;;;;;;;13.35;6.30;;;9.70;99.90;;;;;;5094790;28;20214;-80
2023/05/01 00:47:08;;;;;;;12.05;6.10;;;9.70;99.90;;;;;;5093931;28;20647;-81
2023/05/01 00:49:34;;;;;;;19.02;6.43;;;9.70;99.90;;;;;;5077941;28;20229;-80
2023/05/01 00:52:00;;;;;;;12.80;6.55;;;9.70;99.90;;;;;;5090192;28;20194;-79
2023/05/01 00:54:27;;;;;;;16.25;6.15;;;9.70;99.90;;;;;;5096317;28;20197;-79
2023/05/01 00:56:53;;;;;;;11.82;6.22;;;9.70;99.90;;;;;;5093206;28;20234;-79
2023/05/01 00:59:19;;;;;;;13.00;6.93;;;9.70;99.90;;;;;;5077939;28;20214;-79
2023/05/01 01:01:46;;;;;;;10.27;6.50;;;9.60;99.90;;;;;;5073044;28;20623;-79
2023/05/01 01:04:12;;;;;;;9.60;6.13;;;9.60;99.90;;;;;;5066892;28;20219;-79
2023/05/01 01:07:02;;;;;;;11.20;6.47;;;9.60;99.90;;;;;;5092082;28;20182;-78
2023/05/01 01:09:53;;;;;;;13.60;6.20;;;9.60;99.90;;;;;;5094199;28;20197;-79
2023/05/01 01:12:46;;;;;;;10.63;6.25;;;9.60;99.90;;;;;;5091475;28;20554;-79
2023/05/01 01:15:38;;;;;;;10.30;6.15;;;9.60;99.90;;;;;;5092304;28;20639;-82
2023/05/01 01:18:18;;;;;;;12.57;5.95;;;9.60;99.90;;;;;;5095492;28;20178;-80
2023/05/01 01:21:04;;;;;;;11.52;5.97;;;9.60;99.90;;;;;;5075854;28;20270;-80
2023/05/01 01:24:03;;;;;;;10.57;6.80;;;9.60;99.90;;;;;;5088739;28;20564;-79
2023/05/01 01:26:44;;;;;;;11.48;6.47;;;9.60;99.90;;;;;;5065826;28;21781;-80
2023/05/01 01:29:28;;;;;;;11.10;6.03;;;9.50;99.90;;;;;;5094441;28;20265;-80
2023/05/01 01:31:54;;;;;;;13.40;5.88;;;9.50;99.90;;;;;;5073959;28;20175;-80
2023/05/01 01:34:32;;;;;;;13.05;6.35;;;9.50;99.90;;;;;;5095218;28;20178;-80
2023/05/01 01:37:12;;;;;;;14.88;6.40;;;9.50;99.90;;;;;;5085763;28;20192;-80
2023/05/01 01:40:01;;;;;;;11.68;6.30;;;9.50;99.90;;;;;;5091909;28;20408;-81
2023/05/01 01:42:35;;;;;;;9.65;6.03;;;9.50;99.90;;;;;;5082649;28;20222;-80
2023/05/01 01:45:09;;;;;;;13.25;5.78;;;9.50;99.90;;;;;;5081736;28;20259;-80
2023/05/01 01:47:38;;;;;;;11.57;5.90;;;9.50;99.90;;;;;;5093454;28;20185;-79
2023/05/01 01:50:07;;;;;;;15.85;6.15;;;9.40;99.90;;;;;;5093129;28;20581;-80
2023/05/01 01:52:35;;;;;;;15.88;5.85;;;9.40;99.90;;;;;;5091651;28;20178;-79
2023/05/01 01:55:08;;;;;;;13.18;6.28;;;9.40;99.90;;;;;;5087402;28;20183;-80
2023/05/01 01:57:36;;;;;;;11.88;6.10;;;9.40;99.90;;;;;;5092036;28;20174;-79
2023/05/01 02:00:07;;;;;;;18.10;6.40;;;9.40;99.90;;;;;;5093278;28;20182;-79
2023/05/01 02:02:40;;;;;;;10.95;5.90;;;9.40;99.90;;;;;;5093395;28;20208;-80
2023/05/01 02:05:14;;;;;;;16.00;6.35;;;9.40;99.90;;;;;;5072684;28;20244;-80
2023/05/01 02:07:41;;;;;;;15.98;6.25;;;9.40;99.90;;;;;;5094268;28;20179;-80
2023/05/01 02:10:12;;;;;;;11.38;6.15;;;9.40;99.90;;;;;;5061201;28;20225;-80
2023/05/01 02:12:44;;;;;;;15.55;6.03;;;9.40;99.90;;;;;;5071245;28;20636;-79
2023/05/01 02:15:11;;;;;;;15.68;6.40;;;9.40;99.90;;;;;;5090460;28;20186;-80
2023/05/01 02:17:39;;;;;;;14.88;6.32;;;9.30;99.90;;;;;;5075373;28;20281;-80
2023/05/01 02:20:08;;;;;;;12.68;6.05;;;9.30;99.90;;;;;;5085330;28;20197;-79
2023/05/01 02:22:36;;;;;;;12.57;5.85;;;9.30;99.90;;;;;;5089105;28;20240;-79
2023/05/01 02:25:03;;;;;;;12.75;6.28;;;9.30;99.90;;;;;;5085252;28;20297;-80
2023/05/01 02:27:37;;;;;;;13.07;5.97;;;9.30;99.90;;;;;;5079946;28;20190;-79
2023/05/01 02:30:04;;;;;;;15.32;6.32;;;9.30;99.90;;;;;;5087531;28;20173;-80
2023/05/01 02:32:30;;;;;;;14.70;6.50;;;9.30;99.90;;;;;;5090995;28;20280;-82
2023/05/01 02:34:57;;;;;;;12.48;6.90;;;9.20;99.90;;;;;;5091755;28;20181;-79
2023/05/01 02:37:23;;;;;;;12.20;6.40;;;9.30;99.90;;;;;;5073762;28;20178;-79
2023/05/01 02:39:49;;;;;;;15.63;6.95;;;9.30;99.90;;;;;;5091875;28;20559;-80
2023/05/01 02:42:16;;;;;;;14.95;6.57;;;9.30;99.90;;;;;;5091848;28;20178;-79
2023/05/01 02:44:55;;;;;;;13.50;6.60;;;9.20;99.90;;;;;;5074345;28;20279;-79
2023/05/01 02:47:23;;;;;;;14.25;6.70;;;9.20;99.90;;;;;;5085598;28;20178;-78
2023/05/01 02:49:51;;;;;;;14.35;7.55;;;9.20;99.90;;;;;;5091990;28;20233;-79
2023/05/01 02:52:18;;;;;;;14.55;7.30;;;9.20;99.90;;;;;;5092338;28;20182;-80
2023/05/01 02:54:48;;;;;;;15.75;7.72;;;9.20;99.90;;;;;;5092850;28;20174;-79
2023/05/01 02:57:16;;;;;;;12.88;7.43;;;9.20;99.90;;;;;;5090209;28;20205;-79
2023/05/01 02:59:42;;;;;;;13.10;6.75;;;9.10;99.90;;;;;;5088675;28;20816;-79
2023/05/01 03:02:08;;;;;;;17.20;7.82;;;9.10;99.90;;;;;;5084787;28;20697;-78
2023/05/01 03:04:34;;;;;;;14.13;7.50;;;9.00;99.90;;;;;;5092333;28;20212;-78
2023/05/01 03:07:00;;;;;;;17.05;7.63;;;9.00;99.90;;;;;;5066287;28;20704;-78
2023/05/01 03:09:26;;;;;;;12.82;8.00;;;9.00;99.90;;;;;;5068022;28;20186;-79
2023/05/01 03:11:51;;;;;;;15.02;8.25;;;9.00;99.90;;;;;;5070651;28;20275;-79
2023/05/01 03:14:17;;;;;;;16.77;8.57;;;9.00;99.90;;;;;;5074809;28;20200;-79
2023/05/01 03:16:43;;;;;;;15.90;8.13;;;9.00;99.90;;;;;;5080513;28;20187;-80
2023/05/01 03:19:09;;;;;;;15.02;7.82;;;9.00;99.90;;;;;;5075359;28;20331;-78
2023/05/01 03:21:35;;;;;;;14.25;7.97;;;9.00;99.90;;;;;;5079629;28;20187;-79
2023/05/01 03:24:02;;;;;;;11.32;7.63;;;8.90;99.90;;;;;;5081964;28;20621;-80
2023/05/01 03:26:29;;;;;;;16.90;8.00;;;8.90;99.90;;;;;;5089364;28;20323;-80
2023/05/01 03:28:55;;;;;;;14.68;7.38;;;8.90;99.90;;;;;;5090844;28;20269;-79
2023/05/01 03:31:21;;;;;;;12.00;7.88;;;8.80;99.90;;;;;;5066086;28;20647;-80
2023/05/01 03:33:47;;;;;;;17.67;8.02;;;8.80;99.90;;;;;;5079418;28;20230;-79
2023/05/01 03:36:16;;;;;;;20.77;7.78;;;8.70;99.90;;;;;;5050149;28;20185;-79
2023/05/01 03:38:43;;;;;;;15.27;7.88;;;8.70;99.90;;;;;;5090553;28;20182;-80
2023/05/01 03:41:09;;;;;;;13.73;8.15;;;8.70;99.90;;;;;;5085418;28;20194;-79
2023/05/01 03:44:06;;;;;;;15.95;7.93;;;8.70;99.90;;;;;;5071524;28;20724;-80
2023/05/01 03:46:37;;;;;;;15.55;7.75;;;8.70;99.90;;;;;;5077868;28;20201;-82
2023/05/01 03:49:05;;;;;;;14.38;8.15;;;8.60;99.90;;;;;;5071577;28;20206;-78
2023/05/01 03:51:36;;;;;;;15.00;7.75;;;8.60;99.90;;;;;;5074333;28;20210;-79
2023/05/01 03:54:02;;;;;;;14.70;7.88;;;8.60;99.90;;;;;;5071168;28;20705;-79
2023/05/01 03:56:35;;;;;;;14.70;8.00;;;8.60;99.90;;;;;;5089007;28;20182;-79
2023/05/01 03:59:01;;;;;;;13.85;8.20;;;8.60;99.90;;;;;;5091168;28;20975;-79
2023/05/01 04:01:28;;;;;;;15.93;8.52;;;8.60;99.90;;;;;;5073461;28;20291;-79
2023/05/01 04:03:54;;;;;;;20.50;8.35;;;8.60;99.90;;;;;;5052462;28;20276;-79
2023/05/01 04:06:21;;;;;;;14.35;7.97;;;8.60;99.90;;;;;;5063087;28;20260;-79
2023/05/01 04:08:47;;;;;;;16.58;8.60;;;8.60;99.90;;;;;;5091011;28;20186;-79
2023/05/01 04:11:13;;;;;;;15.00;8.27;;;8.60;99.90;;;;;;5089246;28;20186;-78
2023/05/01 04:13:39;;;;;;;14.90;8.35;;;8.60;99.90;;;;;;5074363;28;20181;-78
2023/05/01 04:16:05;;;;;;;14.77;7.68;;;8.50;99.90;;;;;;5083953;28;20526;-78
2023/05/01 04:18:31;;;;;;;13.40;7.93;;;8.50;99.90;;;;;;5063238;28;20250;-79
2023/05/01 04:20:58;;;;;;;16.58;8.63;;;8.50;99.90;;;;;;5089460;28;20254;-79
2023/05/01 04:23:24;;;;;;;17.98;8.75;;;8.50;99.90;;;;;;5071141;28;20632;-79
2023/05/01 04:25:52;;;;;;;21.42;8.65;;;8.50;99.90;;;;;;5086887;28;20190;-79
2023/05/01 04:28:18;;;;;;;17.15;8.40;;;8.50;99.90;;;;;;5064984;28;20182;-80
2023/05/01 04:30:44;;;;;;;13.13;8.38;;;8.50;99.90;;;;;;5063080;28;20709;-83
2023/05/01 04:33:10;;;;;;;18.40;8.40;;;8.60;99.90;;;;;;5089446;28;20189;-80
2023/05/01 04:35:38;;;;;;;16.58;8.75;;;8.60;99.90;;;;;;5069097;28;20273;-79
2023/05/01 04:38:06;;;;;;;15.65;8.27;;;8.50;99.90;;;;;;5080842;28;20269;-80
2023/05/01 04:40:32;;;;;;;17.58;8.40;;;8.50;99.90;;;;;;5077738;28;20238;-81
2023/05/01 04:42:59;;;;;;;19.40;8.52;;;8.50;99.90;;;;;;5073179;28;20182;-79
2023/05/01 04:45:25;;;;;;;16.52;8.80;;;8.50;99.90;;;;;;5087324;28;20206;-79
2023/05/01 04:47:52;;;;;;;13.48;7.75;;;8.50;99.90;;;;;;5091009;28;20185;-80
2023/05/01 04:50:19;;;;;;;15.65;8.85;;;8.50;99.90;;;;;;5088951;28;20274;-80
2023/05/01 04:52:46;;;;;;;16.48;9.57;;;8.60;99.90;;;;;;5064635;28;20194;-81
2023/05/01 04:55:12;;;;;;;13.82;8.68;;;8.60;99.90;;;;;;5083896;28;20242;-81
2023/05/01 04:57:48;;;;;;;18.77;8.68;;;8.60;99.90;;;;;;5049898;28;20228;-79
2023/05/01 05:00:14;;;;;;;18.02;9.15;;;8.60;99.90;;;;;;5071664;28;20564;-80
2023/05/01 05:02:49;;;;;;;14.57;8.30;;;8.60;99.90;;;;;;5081352;28;20573;-79
2023/05/01 05:05:15;;;;;;;15.18;8.90;;;8.60;99.90;;;;;;5090797;28;20197;-78
2023/05/01 05:07:41;;;;;;;15.77;9.25;;;8.60;99.90;;;;;;5090696;28;20201;-79
2023/05/01 05:10:25;;;;;;;17.55;8.43;;;8.60;99.90;;;;;;5088497;28;20247;-80
2023/05/01 05:13:09;;;;;;;14.55;8.93;;;8.60;99.90;;;;;;5074895;28;20276;-83
2023/05/01 05:15:36;;;;;;;15.88;8.77;;;8.70;99.90;;;;;;5089011;28;20254;-76
2023/05/01 05:18:03;;;;;;;20.50;9.88;;;8.70;99.90;;;;;;5094052;28;20182;-78
2023/05/01 05:20:31;;;;;;;19.75;9.20;;;8.70;99.90;;;;;;5074933;28;20235;-79
2023/05/01 05:22:57;;;;;;;18.60;9.70;;;8.70;99.90;;;;;;5092119;28;20186;-78
2023/05/01 05:25:24;;;;;;;17.70;9.23;;;8.70;99.90;;;;;;5091596;28;20220;-78
2023/05/01 05:27:51;;;;;;;17.45;9.27;;;8.80;99.90;;;;;;5092772;28;20194;-78
2023/05/01 05:30:17;;;;;;;18.77;9.52;;;8.80;99.90;;;;;;5094120;28;20178;-81
2023/05/01 05:32:46;;;;;;;18.73;9.23;;;8.80;99.90;;;;;;5073693;28;20277;-78
2023/05/01 05:35:12;;;;;;;20.48;9.50;;;8.90;99.90;;;;;;5073996;28;20178;-77
2023/05/01 05:37:38;;;;;;;16.77;8.63;;;8.90;99.90;;;;;;5057149;28;20193;-78
2023/05/01 05:40:04;;;;;;;15.82;9.40;;;8.90;99.90;;;;;;5092205;28;20210;-79
2023/05/01 05:42:37;;;;;;;17.20;9.35;;;9.00;99.90;;;;;;5078248;28;20295;-80
2023/05/01 05:45:06;;;;;;;16.65;8.50;;;9.00;99.90;;;;;;5077826;28;20259;-79
2023/05/01 05:47:32;;;;;;;37.40;18.73;;;9.00;99.90;;;;;;5076919;28;20265;-79
2023/05/01 05:49:58;;;;;;;15.50;9.02;;;9.10;99.90;;;;;;5093879;28;20217;-79
2023/05/01 05:52:25;;;;;;;18.58;8.77;;;9.10;99.90;;;;;;5091006;28;20596;-80
2023/05/01 05:54:51;;;;;;;15.60;8.95;;;9.20;99.90;;;;;;5077197;28;20185;-79
2023/05/01 05:57:16;;;;;;;22.27;9.05;;;9.20;99.90;;;;;;5077358;28;20215;-79
2023/05/01 05:59:47;;;;;;;16.35;9.18;;;9.20;99.90;;;;;;5088276;28;20261;-79
2023/05/01 06:02:14;;;;;;;17.13;9.23;;;9.20;99.90;;;;;;5075286;28;20647;-80
2023/05/01 06:04:40;;;;;;;18.08;9.23;;;9.30;99.90;;;;;;5073256;28;20696;-79
2023/05/01 06:07:06;;;;;;;21.02;10.00;;;9.40;99.90;;;;;;5078144;28;20186;-79
2023/05/01 06:09:32;;;;;;;19.08;9.52;;;9.40;99.90;;;;;;5093075;28;20632;-79
2023/05/01 06:12:00;;;;;;;23.75;10.02;;;9.50;99.90;;;;;;5093710;28;20236;-79
2023/05/01 06:14:27;;;;;;;20.77;9.10;;;9.50;99.90;;;;;;5076735;28;20182;-79
2023/05/01 06:16:53;;;;;;;19.17;10.02;;;9.60;99.90;;;;;;5093372;28;20272;-79
2023/05/01 06:19:19;;;;;;;18.08;9.57;;;9.60;99.90;;;;;;5093430;28;20254;-79
2023/05/01 06:21:50;;;;;;;15.68;8.90;;;9.70;99.90;;;;;;5077077;28;20178;-79
2023/05/01 06:24:16;;;;;;;19.80;10.27;;;9.70;99.90;;;;;;5074713;28;20574;-79
2023/05/01 06:26:48;;;;;;;19.70;9.10;;;9.80;99.90;;;;;;5071062;28;20179;-82
2023/05/01 06:29:15;;;;;;;18.92;9.38;;;9.90;99.90;;;;;;5093045;28;20269;-82
2023/05/01 06:31:41;;;;;;;23.38;9.55;;;9.90;99.90;;;;;;5093243;28;20207;-79
2023/05/01 06:34:07;;;;;;;21.40;9.95;;;10.00;99.90;;;;;;5074632;28;20194;-79
2023/05/01 06:36:45;;;;;;;19.38;9.30;;;10.00;99.90;;;;;;5085519;28;20190;-80
2023/05/01 06:39:11;;;;;;;17.33;9.10;;;10.10;99.90;;;;;;5075614;28;20229;-79
2023/05/01 06:41:37;;;;;;;19.85;10.20;;;10.20;99.90;;;;;;5076093;28;20182;-80
2023/05/01 06:44:03;;;;;;;17.30;9.52;;;10.20;99.90;;;;;;5092553;28;20319;-82
2023/05/01 06:46:29;;;;;;;21.63;9.95;;;10.40;99.90;;;;;;5073834;28;20190;-79
2023/05/01 06:48:55;;;;;;;16.63;9.10;;;10.40;99.90;;;;;;5089589;28;20239;-79
2023/05/01 06:51:21;;;;;;;17.88;9.77;;;10.50;99.90;;;;;;5095823;28;20651;-78
2023/05/01 06:53:47;;;;;;;21.75;10.27;;;10.50;99.90;;;;;;5114373;28;20612;-77
2023/05/01 06:56:13;;;;;;;21.23;10.23;;;10.50;99.90;;;;;;5092846;28;20186;-78
2023/05/01 06:58:39;;;;;;;16.88;8.75;;;10.60;99.90;;;;;;5089876;28;20193;-79
2023/05/01 07:01:04;;;;;;;16.55;9.82;;;10.60;99.90;;;;;;5075636;28;20686;-79
2023/05/01 07:03:30;;;;;;;18.98;9.27;;;10.70;99.90;;;;;;5075079;28;20876;-81
2023/05/01 07:05:56;;;;;;;17.77;10.05;;;10.80;99.90;;;;;;5071478;28;20601;-77
2023/05/01 07:08:23;;;;;;;23.00;10.60;;;10.80;99.90;;;;;;5075528;28;20208;-76
2023/05/01 07:10:48;;;;;;;25.23;10.70;;;10.90;99.90;;;;;;5091155;28;20234;-77
2023/05/01 07:13:15;;;;;;;27.92;10.55;;;11.00;99.90;;;;;;5079084;28;20273;-81
2023/05/01 07:15:41;;;;;;;33.47;10.68;;;11.10;99.90;;;;;;5088410;28;20178;-77
2023/05/01 07:18:07;;;;;;;24.13;10.63;;;11.10;99.90;;;;;;5093463;28;20181;-76
2023/05/01 07:20:36;;;;;;;26.30;11.15;;;11.20;99.90;;;;;;5089049;28;20186;-81
2023/05/01 07:23:02;;;;;;;27.73;11.32;;;11.30;99.90;;;;;;5084834;28;20181;-76
2023/05/01 07:25:28;;;;;;;19.75;10.32;;;11.40;99.90;;;;;;5082857;28;20218;-77
2023/05/01 07:27:54;;;;;;;32.35;10.73;;;11.50;99.90;;;;;;5090800;28;20182;-78
2023/05/01 07:30:20;;;;;;;29.88;10.25;;;11.70;99.90;;;;;;5091365;28;20787;-80
2023/05/01 07:32:46;;;;;;;23.73;9.77;;;11.80;99.90;;;;;;5075410;28;20265;-79
2023/05/01 07:35:12;;;;;;;21.48;9.75;;;11.90;99.90;;;;;;5089642;28;20577;-79
2023/05/01 07:37:38;;;;;;;21.20;9.68;;;12.00;99.90;;;;;;5090990;28;20190;-78
2023/05/01 07:40:04;;;;;;;20.35;9.68;;;12.20;99.90;;;;;;5089585;28;20197;-78
2023/05/01 07:42:30;;;;;;;19.30;8.95;;;12.40;99.90;;;;;;5072256;28;20186;-78
2023/05/01 07:44:55;;;;;;;20.58;9.95;;;12.60;99.90;;;;;;5071304;28;20232;-79
2023/05/01 07:47:21;;;;;;;22.13;9.52;;;12.80;99.90;;;;;;5090080;28;20215;-80
2023/05/01 07:49:48;;;;;;;19.17;8.88;;;12.90;99.90;;;;;;5074849;28;20233;-79
2023/05/01 07:52:14;;;;;;;20.92;7.75;;;13.10;99.90;;;;;;5093396;28;20182;-79
2023/05/01 07:54:40;;;;;;;18.65;8.23;;;13.30;99.90;;;;;;5091673;28;20188;-80
2023/05/01 07:57:07;;;;;;;15.68;6.80;;;13.40;99.90;;;;;;5090701;28;20182;-79
2023/05/01 07:59:32;;;;;;;17.75;8.20;;;13.50;99.90;;;;;;5092123;28;20192;-79
2023/05/01 08:01:58;;;;;;;15.85;7.35;;;13.70;99.90;;;;;;5092749;28;20180;-78
2023/05/01 08:04:24;;;;;;;14.18;7.25;;;13.90;99.90;;;;;;5091551;28;20201;-79
2023/05/01 08:06:50;;;;;;;19.17;8.25;;;14.10;99.90;;;;;;5092808;28;20666;-77
2023/05/01 08:09:16;;;;;;;17.65;7.68;;;14.30;99.90;;;;;;5089794;28;20265;-78
2023/05/01 08:11:42;;;;;;;16.95;7.40;;;14.40;99.90;;;;;;5074666;28;20300;-78
2023/05/01 08:14:08;;;;;;;18.02;7.40;;;14.60;99.90;;;;;;5091451;28;20647;-77
2023/05/01 08:16:34;;;;;;;15.02;6.38;;;14.70;99.90;;;;;;5096413;28;20208;-79
2023/05/01 08:19:00;;;;;;;18.83;6.25;;;14.80;99.90;;;;;;5099014;28;20576;-79
2023/05/01 08:21:26;;;;;;;17.45;6.28;;;15.00;99.20;;;;;;5075090;28;20194;-80
2023/05/01 08:23:55;;;;;;;16.35;6.80;;;15.10;98.40;;;;;;5074320;28;20205;-79
2023/05/01 08:26:21;;;;;;;11.50;6.43;;;15.20;97.80;;;;;;5092853;28;20185;-79
2023/05/01 08:28:47;;;;;;;12.82;5.80;;;15.30;97.40;;;;;;5073577;28;20201;-80
2023/05/01 08:31:13;;;;;;;14.60;5.97;;;15.40;97.00;;;;;;5070772;28;20193;-80
2023/05/01 08:33:43;;;;;;;11.95;5.95;;;15.40;96.60;;;;;;5078066;28;20206;-81
2023/05/01 08:36:09;;;;;;;17.83;6.68;;;15.50;96.20;;;;;;5091271;28;20189;-80
2023/05/01 08:38:36;;;;;;;13.50;5.80;;;15.70;96.00;;;;;;5091490;28;20170;-81
2023/05/01 08:41:02;;;;;;;12.23;6.40;;;15.80;95.90;;;;;;5085043;28;20265;-80
2023/05/01 08:43:31;;;;;;;11.45;6.07;;;16.00;95.60;;;;;;5073890;28;20198;-79
2023/05/01 08:46:02;;;;;;;15.15;6.57;;;16.20;95.80;;;;;;5085001;28;20287;-81
2023/05/01 08:48:31;;;;;;;15.80;6.63;;;16.40;95.40;;;;;;5068218;28;20707;-80
2023/05/01 08:50:59;;;;;;;14.63;6.30;;;16.50;94.90;;;;;;5089782;28;20222;-79
2023/05/01 08:53:26;;;;;;;14.98;5.68;;;16.70;94.70;;;;;;5096371;28;20227;-77
2023/05/01 08:55:55;;;;;;;13.95;5.40;;;16.80;94.20;;;;;;5094744;28;20189;-79
2023/05/01 08:58:23;;;;;;;10.85;5.38;;;16.90;93.60;;;;;;5096140;28;20170;-79
2023/05/01 09:00:49;;;;;;;18.83;5.72;;;17.10;92.80;;;;;;5092634;28;20704;-79
2023/05/01 09:03:16;;;;;;;14.02;6.00;;;17.20;92.00;;;;;;5077923;28;20286;-79
2023/05/01 09:05:42;;;;;;;17.25;6.03;;;17.30;91.60;;;;;;5090443;28;20214;-79
2023/05/01 09:08:08;;;;;;;12.27;5.80;;;17.40;91.30;;;;;;5075732;28;20185;-79
2023/05/01 09:10:40;;;;;;;20.67;6.07;;;17.40;90.60;;;;;;5043471;28;20190;-79
2023/05/01 09:13:07;;;;;;;17.33;5.35;;;17.50;90.20;;;;;;5085876;28;20705;-79
2023/05/01 09:15:32;;;;;;;14.45;5.15;;;17.50;89.40;;;;;;5076473;28;20277;-80
2023/05/01 09:18:00;;;;;;;12.90;5.40;;;17.50;88.80;;;;;;5094640;28;20265;-79
2023/05/01 09:20:27;;;;;;;13.88;5.38;;;17.60;88.30;;;;;;5093926;28;20173;-80
2023/05/01 09:22:56;;;;;;;8.32;4.45;;;17.70;87.20;;;;;;5090147;28;20185;-79
2023/05/01 09:25:22;;;;;;;11.85;4.53;;;17.80;85.40;;;;;;5092620;28;20220;-80
2023/05/01 09:27:48;;;;;;;14.38;4.45;;;17.90;84.00;;;;;;5095942;28;20541;-79
2023/05/01 09:30:40;;;;;;;11.88;4.00;;;18.00;83.30;;;;;;5092241;28;20628;-79
2023/05/01 09:33:11;;;;;;;8.48;3.70;;;18.20;83.30;;;;;;5087146;28;20674;-79
2023/05/01 09:35:53;;;;;;;7.85;3.60;;;18.40;81.30;;;;;;5092224;28;20182;-77
2023/05/01 09:38:24;;;;;;;8.98;4.00;;;18.50;78.80;;;;;;5094474;28;20190;-80
2023/05/01 09:40:51;;;;;;;7.57;3.97;;;18.70;78.60;;;;;;5080452;28;20655;-80
2023/05/01 09:43:25;;;;;;;9.02;4.22;;;18.80;77.60;;;;;;5092795;28;20178;-78
2023/05/01 09:46:09;;;;;;;10.32;4.00;;;19.00;76.20;;;;;;5091883;28;20209;-78
2023/05/01 09:48:36;;;;;;;9.63;4.30;;;19.10;75.20;;;;;;5093941;28;20217;-78
2023/05/01 09:51:21;;;;;;;11.48;4.30;;;19.20;73.80;;;;;;5093215;28;20225;-79
2023/05/01 09:53:48;;;;;;;10.38;4.68;;;19.20;72.30;;;;;;5094479;28;20261;-80
2023/05/01 09:56:14;;;;;;;11.73;4.63;;;19.20;72.30;;;;;;5084470;28;20190;-78
2023/05/01 09:58:39;;;;;;;12.23;4.03;;;19.30;72.20;;;;;;5083009;28;20189;-79
2023/05/01 10:01:05;;;;;;;14.80;3.67;;;19.30;71.50;;;;;;5091452;28;20643;-79
2023/05/01 10:03:33;;;;;;;9.23;3.60;;;19.40;71.10;;;;;;5089490;28;20190;-79
2023/05/01 10:06:03;;;;;;;5.07;2.75;;;19.60;71.70;;;;;;5075310;28;20202;-79
2023/05/01 10:08:45;;;;;;;6.82;2.92;;;19.70;70.10;;;;;;5072573;28;20659;-80
2023/05/01 10:11:11;;;;;;;7.90;2.58;;;19.90;68.70;;;;;;5076032;28;20183;-80
2023/05/01 10:13:37;;;;;;;8.48;2.67;;;20.10;68.50;;;;;;5073385;28;20282;-80
2023/05/01 10:16:06;;;;;;;9.45;2.50;;;20.20;67.30;;;;;;5059683;28;20617;-81
2023/05/01 10:18:35;;;;;;;4.70;1.73;;;20.30;65.40;;;;;;5047035;28;20194;-80
2023/05/01 10:21:06;;;;;;;4.25;1.83;;;20.30;64.70;;;;;;5092295;28;20210;-80
2023/05/01 10:23:32;;;;;;;5.25;1.77;;;20.40;63.50;;;;;;5093157;28;20235;-79
2023/05/01 10:26:01;;;;;;;2.15;1.10;;;20.30;63.10;;;;;;5082811;28;20254;-80
2023/05/01 10:28:28;;;;;;;1.75;0.93;;;20.30;62.20;;;;;;5080459;28;20194;-80
2023/05/01 10:30:59;;;;;;;5.93;1.27;;;20.30;59.80;;;;;;5091823;28;20174;-81
2023/05/01 10:33:25;;;;;;;7.82;2.10;;;20.30;60.00;;;;;;5094680;28;20193;-80
2023/05/01 10:35:56;;;;;;;8.07;2.30;;;20.40;60.90;;;;;;5092545;28;20190;-81
2023/05/01 10:38:32;;;;;;;4.65;1.98;;;20.40;61.70;;;;;;5094437;28;20635;-80
2023/05/01 10:40:58;;;;;;;5.35;1.60;;;20.40;62.20;;;;;;5092296;28;20181;-80
2023/05/01 10:43:28;;;;;;;3.92;1.92;;;20.40;62.40;;;;;;5085383;28;20187;-80
2023/05/01 10:46:06;;;;;;;6.10;2.53;;;20.40;62.10;;;;;;5078250;28;20700;-80
2023/05/01 10:48:39;;;;;;;7.70;3.42;;;20.40;62.80;;;;;;5075909;28;20182;-80
2023/05/01 10:51:11;;;;;;;3.45;2.42;;;20.40;63.90;;;;;;5083851;28;20222;-79
2023/05/01 10:53:38;;;;;;;7.97;2.67;;;20.40;64.80;;;;;;5073449;28;20191;-79
2023/05/01 10:56:05;;;;;;;5.85;2.83;;;20.40;65.00;;;;;;5062367;28;20178;-80
2023/05/01 10:58:39;;;;;;;6.97;2.67;;;20.40;64.80;;;;;;5091652;28;20193;-81
2023/05/01 11:01:26;;;;;;;8.00;2.40;;;20.50;65.30;;;;;;5082687;28;20169;-80
2023/05/01 11:03:53;;;;;;;7.38;2.88;;;20.60;65.20;;;;;;5084408;28;20179;-79
2023/05/01 11:06:19;;;;;;;6.00;2.72;;;20.70;64.70;;;;;;5079903;28;20210;-80
2023/05/01 11:08:46;;;;;;;5.43;2.97;;;20.60;64.60;;;;;;5092546;28;20651;-80
2023/05/01 11:11:32;;;;;;;5.63;2.30;;;20.70;64.80;;;;;;5082373;28;20556;-82
2023/05/01 11:13:58;;;;;;;8.82;3.08;;;20.70;64.40;;;;;;5061154;28;20201;-80
2023/05/01 11:16:36;;;;;;;9.73;3.30;;;20.70;65.40;;;;;;5085533;28;20582;-81
2023/05/01 11:19:03;;;;;;;5.18;2.58;;;20.70;66.00;;;;;;5092102;28;20602;-79
2023/05/01 11:21:32;;;;;;;6.60;2.67;;;20.80;65.50;;;;;;5090960;28;20217;-80
2023/05/01 11:23:59;;;;;;;7.45;2.72;;;20.90;65.70;;;;;;5090522;28;20190;-79
2023/05/01 11:26:26;;;;;;;6.95;3.55;;;20.80;65.60;;;;;;5082272;28;20198;-78
2023/05/01 11:28:54;;;;;;;5.20;3.00;;;20.80;65.90;;;;;;5061368;28;20179;-80
2023/05/01 11:31:20;;;;;;;8.10;2.85;;;20.80;66.00;;;;;;5080915;28;20208;-81
2023/05/01 11:33:46;;;;;;;6.38;3.00;;;20.70;66.40;;;;;;5092163;28;20281;-80
2023/05/01 11:36:13;;;;;;;4.97;2.72;;;20.80;66.70;;;;;;5074600;28;20332;-80
2023/05/01 11:38:50;;;;;;;5.90;2.88;;;20.90;66.70;;;;;;5092286;28;20173;-82
2023/05/01 11:41:20;;;;;;;6.15;3.63;;;20.90;66.80;;;;;;5088217;28;20351;-81
2023/05/01 11:43:58;;;;;;;6.22;3.00;;;21.00;66.80;;;;;;5071513;28;20332;-80
2023/05/01 11:46:29;;;;;;;5.80;2.58;;;21.10;66.70;;;;;;5069824;28;20197;-81
2023/05/01 11:48:56;;;;;;;5.85;2.80;;;21.10;66.70;;;;;;5073096;28;20182;-80
2023/05/01 11:51:23;;;;;;;8.70;4.07;;;21.20;66.80;;;;;;5072096;28;20214;-80
2023/05/01 11:54:02;;;;;;;6.22;3.75;;;21.20;66.20;;;;;;5072295;28;20183;-81
2023/05/01 11:56:29;;;;;;;7.80;3.20;;;21.10;66.20;;;;;;5087556;28;20299;-80
2023/05/01 11:58:56;;;;;;;6.35;2.58;;;21.00;67.00;;;;;;5091973;28;20174;-80
2023/05/01 12:01:43;;;;;;;4.35;2.80;;;20.90;66.10;;;;;;5089535;28;20182;-80
2023/05/01 12:04:10;;;;;;;4.88;2.45;;;20.80;65.80;;;;;;5086251;28;20259;-81
2023/05/01 12:06:44;;;;;;;3.15;2.10;;;20.80;66.30;;;;;;5062779;28;20268;-80
2023/05/01 12:09:16;;;;;;;4.53;1.80;;;20.80;65.90;;;;;;5072144;28;20197;-80
2023/05/01 12:11:46;;;;;;;3.83;2.03;;;20.80;66.10;;;;;;5083598;28;20209;-81
2023/05/01 12:14:14;;;;;;;3.95;1.60;;;20.90;65.90;;;;;;5091905;28;20193;-81
2023/05/01 12:16:41;;;;;;;5.35;1.80;;;21.00;65.70;;;;;;5088149;28;20189;-79
2023/05/01 12:19:08;;;;;;;7.20;2.47;;;21.10;66.00;;;;;;5071464;28;20512;-80
2023/05/01 12:21:35;;;;;;;3.38;1.80;;;21.10;66.00;;;;;;5082102;28;20182;-80
2023/05/01 12:24:15;;;;;;;6.18;1.88;;;21.00;65.80;;;;;;5090461;28;20554;-80
2023/05/01 12:26:41;;;;;;;2.88;1.60;;;20.90;66.10;;;;;;5092205;28;20213;-80
2023/05/01 12:29:13;;;;;;;3.70;1.85;;;20.90;66.30;;;;;;5095971;28;20552;-80
2023/05/01 12:31:47;;;;;;;5.85;1.92;;;20.80;66.00;;;;;;5096043;28;20185;-80
2023/05/01 12:34:13;;;;;;;4.00;2.00;;;20.80;64.70;;;;;;5095993;28;20650;-80
2023/05/01 12:36:39;;;;;;;4.20;2.00;;;20.90;64.80;;;;;;5090843;28;20182;-80
2023/05/01 12:39:10;;;;;;;5.85;2.20;;;20.80;65.20;;;;;;5095113;28;20244;-79
2023/05/01 12:41:37;;;;;;;5.05;2.42;;;20.90;65.90;;;;;;5095843;28;20216;-80
2023/05/01 12:44:18;;;;;;;6.18;3.50;;;20.80;65.50;;;;;;5096988;28;20169;-80
2023/05/01 12:46:52;;;;;;;2.88;1.90;;;20.80;65.80;;;;;;5095795;28;20529;-80
2023/05/01 12:49:22;;;;;;;5.13;1.90;;;20.70;65.60;;;;;;5105505;28;20578;-79
2023/05/01 12:51:53;;;;;;;5.97;1.98;;;20.70;65.80;;;;;;5096612;28;20221;-79